createdAt,value
2018-07-07T00:00:36.464Z,3.70
2018-07-07T00:03:05.833Z,3.83
2018-07-07T00:05:35.232Z,2.70
2018-07-07T00:08:04.549Z,4.20
2018-07-07T00:10:33.905Z,5.03
2018-07-07T00:13:02.967Z,4.53
2018-07-07T00:15:32.316Z,4.07
2018-07-07T00:18:01.924Z,3.60
2018-07-07T00:20:31.222Z,3.50
2018-07-07T00:23:00.593Z,3.50
2018-07-07T00:25:30.011Z,3.83
2018-07-07T00:27:59.301Z,3.30
2018-07-07T00:30:28.679Z,3.33
2018-07-07T00:32:57.988Z,3.40
2018-07-07T00:35:27.284Z,3.37
2018-07-07T00:37:56.594Z,3.40
2018-07-07T00:40:26.282Z,3.77
2018-07-07T00:42:55.625Z,3.63
2018-07-07T00:45:24.991Z,3.90
2018-07-07T00:47:54.362Z,3.67
2018-07-07T00:50:23.920Z,3.60
2018-07-07T00:52:53.250Z,4.40
2018-07-07T00:55:22.615Z,3.03
2018-07-07T00:57:51.945Z,3.37
2018-07-07T01:00:22.380Z,5.73
2018-07-07T01:02:52.181Z,3.90
2018-07-07T01:05:35.795Z,3.30
2018-07-07T01:08:05.355Z,3.23
2018-07-07T01:10:34.727Z,3.33
2018-07-07T01:13:04.027Z,3.50
2018-07-07T01:15:33.374Z,4.50
2018-07-07T01:18:02.679Z,3.67
2018-07-07T01:20:32.023Z,3.17
2018-07-07T01:23:01.570Z,4.40
2018-07-07T01:25:30.887Z,3.00
2018-07-07T01:28:00.210Z,3.90
2018-07-07T01:30:29.548Z,3.10
2018-07-07T01:32:58.950Z,3.97
2018-07-07T01:35:28.263Z,3.87
2018-07-07T01:37:57.632Z,3.73
2018-07-07T01:40:26.960Z,3.87
2018-07-07T01:42:56.248Z,4.23
2018-07-07T01:45:25.758Z,3.40
2018-07-07T01:47:55.224Z,3.33
2018-07-07T01:50:24.615Z,3.30
2018-07-07T01:52:54.205Z,3.67
2018-07-07T01:55:23.656Z,4.90
2018-07-07T01:57:52.981Z,4.80
2018-07-07T02:00:22.418Z,4.47
2018-07-07T02:02:51.712Z,3.27
2018-07-07T02:05:21.051Z,4.00
2018-07-07T02:07:50.844Z,5.03
2018-07-07T02:10:20.347Z,3.60
2018-07-07T02:12:49.787Z,2.80
2018-07-07T02:15:19.089Z,3.50
2018-07-07T02:17:48.368Z,3.37
2018-07-07T02:20:17.674Z,3.57
2018-07-07T02:22:46.974Z,4.30
2018-07-07T02:25:16.254Z,3.60
2018-07-07T02:27:45.274Z,4.33
2018-07-07T02:30:14.932Z,4.10
2018-07-07T02:32:44.333Z,4.17
2018-07-07T02:35:13.598Z,3.43
2018-07-07T02:37:43.507Z,4.70
2018-07-07T02:40:12.772Z,3.90
2018-07-07T02:42:42.065Z,3.13
2018-07-07T02:45:11.328Z,3.17
2018-07-07T02:47:40.648Z,3.73
2018-07-07T02:50:09.948Z,3.17
2018-07-07T02:52:39.553Z,4.43
2018-07-07T02:55:08.879Z,3.90
2018-07-07T02:57:38.192Z,4.03
2018-07-07T03:00:07.607Z,4.87
2018-07-07T03:02:36.955Z,4.30
2018-07-07T03:05:06.334Z,4.43
2018-07-07T03:07:35.738Z,4.40
2018-07-07T03:10:05.240Z,3.93
2018-07-07T03:12:34.531Z,3.57
2018-07-07T03:15:04.203Z,3.33
2018-07-07T03:17:33.511Z,3.70
2018-07-07T03:20:02.856Z,4.13
2018-07-07T03:22:32.168Z,4.00
2018-07-07T03:25:01.544Z,4.60
2018-07-07T03:27:30.879Z,4.43
2018-07-07T03:30:00.205Z,3.80
2018-07-07T03:32:29.500Z,3.70
2018-07-07T03:34:58.903Z,4.10
2018-07-07T03:37:28.362Z,4.33
2018-07-07T03:39:57.663Z,4.10
2018-07-07T03:42:26.991Z,4.27
2018-07-07T03:44:56.308Z,4.20
2018-07-07T03:47:25.586Z,5.43
2018-07-07T03:49:54.938Z,4.03
2018-07-07T03:52:24.239Z,3.90
2018-07-07T03:54:53.293Z,4.73
2018-07-07T03:57:22.606Z,3.97
2018-07-07T03:59:51.991Z,4.80
2018-07-07T04:02:21.326Z,4.17
2018-07-07T04:04:50.649Z,4.77
2018-07-07T04:07:20.044Z,4.43
2018-07-07T04:09:49.330Z,3.80
2018-07-07T04:12:18.642Z,4.53
2018-07-07T04:14:47.993Z,4.20
2018-07-07T04:17:17.308Z,3.50
2018-07-07T04:19:46.595Z,3.50
2018-07-07T04:22:16.565Z,4.47
2018-07-07T04:24:46.044Z,4.30
2018-07-07T04:27:15.354Z,3.40
2018-07-07T04:29:44.673Z,3.43
2018-07-07T04:32:14.092Z,3.50
2018-07-07T04:34:43.434Z,4.20
2018-07-07T04:37:12.775Z,3.13
2018-07-07T04:39:42.271Z,3.50
2018-07-07T04:42:11.557Z,3.70
2018-07-07T04:44:41.550Z,4.77
2018-07-07T04:47:10.856Z,3.73
2018-07-07T04:49:40.172Z,3.83
2018-07-07T04:52:09.532Z,4.07
2018-07-07T04:54:38.574Z,4.07
2018-07-07T04:57:07.879Z,4.00
2018-07-07T04:59:37.168Z,3.13
2018-07-07T05:02:06.487Z,5.10
2018-07-07T05:04:35.893Z,4.57
2018-07-07T05:07:06.447Z,4.37
2018-07-07T05:09:35.806Z,4.03
2018-07-07T05:12:05.913Z,4.30
2018-07-07T05:14:35.250Z,3.33
2018-07-07T05:17:04.712Z,4.03
2018-07-07T05:19:34.132Z,3.63
2018-07-07T05:22:03.434Z,3.40
2018-07-07T05:24:32.825Z,4.40
2018-07-07T05:27:02.713Z,4.57
2018-07-07T05:29:32.110Z,3.73
2018-07-07T05:32:01.583Z,3.30
2018-07-07T05:34:31.076Z,3.60
2018-07-07T05:37:00.526Z,3.10
2018-07-07T05:39:29.883Z,3.70
2018-07-07T05:41:59.391Z,3.80
2018-07-07T05:44:28.815Z,3.10
2018-07-07T05:46:58.250Z,3.13
2018-07-07T05:49:28.063Z,4.27
2018-07-07T05:51:57.477Z,3.17
2018-07-07T05:54:26.781Z,3.50
2018-07-07T05:56:56.254Z,3.10
2018-07-07T05:59:25.673Z,4.00
2018-07-07T06:01:54.989Z,3.90
2018-07-07T06:04:24.255Z,3.80
2018-07-07T06:06:53.541Z,3.80
2018-07-07T06:09:22.932Z,3.93
2018-07-07T06:11:52.581Z,4.20
2018-07-07T06:14:22.023Z,3.40
2018-07-07T06:16:51.337Z,3.40
2018-07-07T06:19:20.825Z,3.67
2018-07-07T06:21:50.254Z,3.13
2018-07-07T06:24:19.635Z,3.20
2018-07-07T06:26:49.040Z,3.63
2018-07-07T06:29:18.336Z,3.90
2018-07-07T06:31:47.703Z,3.47
2018-07-07T06:34:17.518Z,3.40
2018-07-07T06:36:46.810Z,3.50
2018-07-07T06:39:16.088Z,3.40
2018-07-07T06:41:45.386Z,2.90
2018-07-07T06:44:14.711Z,3.40
2018-07-07T06:46:44.005Z,2.80
2018-07-07T06:49:13.307Z,3.40
2018-07-07T06:51:42.679Z,3.57
2018-07-07T06:54:12.581Z,3.60
2018-07-07T06:56:42.081Z,3.00
2018-07-07T06:59:11.526Z,2.60
2018-07-07T07:01:40.853Z,2.90
2018-07-07T07:04:10.291Z,2.90
2018-07-07T07:06:39.616Z,3.40
2018-07-07T07:09:10.530Z,2.37
2018-07-07T07:11:39.931Z,2.83
2018-07-07T07:14:09.895Z,7.90
2018-07-07T07:16:39.243Z,3.43
2018-07-07T07:19:11.613Z,3.00
2018-07-07T07:21:41.114Z,3.50
2018-07-07T07:24:10.444Z,2.90
2018-07-07T07:26:39.776Z,2.50
2018-07-07T07:29:09.087Z,2.50
2018-07-07T07:31:38.455Z,2.73
2018-07-07T07:34:07.953Z,3.50
2018-07-07T07:36:43.238Z,2.67
2018-07-07T07:39:12.926Z,2.70
2018-07-07T07:41:42.572Z,2.90
2018-07-07T07:44:11.920Z,2.73
2018-07-07T07:46:41.445Z,3.10
2018-07-07T07:49:11.086Z,2.50
2018-07-07T07:51:40.541Z,2.07
2018-07-07T07:54:10.031Z,2.97
2018-07-07T07:56:39.494Z,3.10
2018-07-07T07:59:08.965Z,2.70
2018-07-07T08:01:38.455Z,2.70
2018-07-07T08:04:07.756Z,2.63
2018-07-07T08:06:37.021Z,2.37
2018-07-07T08:09:06.750Z,3.00
2018-07-07T08:11:36.105Z,2.80
2018-07-07T08:14:05.479Z,3.20
2018-07-07T08:16:35.145Z,2.80
2018-07-07T08:19:04.500Z,3.33
2018-07-07T08:21:33.811Z,2.23
2018-07-07T08:24:03.591Z,2.73
2018-07-07T08:26:33.038Z,2.40
2018-07-07T08:29:02.409Z,3.10
2018-07-07T08:31:31.746Z,2.47
2018-07-07T08:34:01.099Z,3.17
2018-07-07T08:36:30.373Z,2.30
2018-07-07T08:38:59.512Z,3.27
2018-07-07T08:41:28.842Z,2.83
2018-07-07T08:43:58.196Z,2.17
2018-07-07T08:46:27.879Z,2.50
2018-07-07T08:48:57.281Z,3.07
2018-07-07T08:51:26.739Z,2.60
2018-07-07T08:53:56.255Z,2.37
2018-07-07T08:56:25.607Z,2.83
2018-07-07T08:58:54.828Z,2.80
2018-07-07T09:01:24.199Z,2.90
2018-07-07T09:03:53.500Z,2.47
2018-07-07T09:06:22.799Z,2.80
2018-07-07T09:08:52.467Z,2.93
2018-07-07T09:11:21.723Z,2.63
2018-07-07T09:13:51.308Z,2.23
2018-07-07T09:16:20.677Z,2.00
2018-07-07T09:18:50.299Z,2.73
2018-07-07T09:21:19.725Z,1.70
2018-07-07T09:23:49.050Z,2.23
2018-07-07T09:26:18.377Z,2.53
2018-07-07T09:28:47.686Z,2.13
2018-07-07T09:31:17.579Z,2.07
2018-07-07T09:33:46.989Z,2.30
2018-07-07T09:36:17.088Z,2.53
2018-07-07T09:38:46.549Z,2.30
2018-07-07T09:41:15.891Z,2.80
2018-07-07T09:43:45.193Z,2.83
2018-07-07T09:46:14.712Z,2.70
2018-07-07T09:48:44.051Z,2.10
2018-07-07T09:51:13.467Z,2.50
2018-07-07T09:53:43.154Z,2.20
2018-07-07T09:56:12.854Z,2.20
2018-07-07T09:58:43.047Z,2.20
2018-07-07T10:01:14.809Z,2.33
2018-07-07T10:03:44.094Z,1.90
2018-07-07T10:06:13.405Z,1.90
2018-07-07T10:08:42.920Z,2.30
2018-07-07T10:11:12.237Z,2.30
2018-07-07T10:13:41.537Z,2.40
2018-07-07T10:16:11.203Z,2.00
2018-07-07T10:18:40.940Z,2.87
2018-07-07T10:21:10.214Z,2.23
2018-07-07T10:23:39.565Z,2.10
2018-07-07T10:26:08.878Z,3.10
2018-07-07T10:28:38.224Z,2.73
2018-07-07T10:31:07.524Z,2.30
2018-07-07T10:33:36.822Z,2.07
2018-07-07T10:36:06.769Z,2.70
2018-07-07T10:38:36.486Z,2.70
2018-07-07T10:41:05.802Z,2.23
2018-07-07T10:43:35.069Z,2.47
2018-07-07T10:46:04.387Z,2.87
2018-07-07T10:48:33.757Z,2.27
2018-07-07T10:51:03.028Z,9.37
2018-07-07T10:53:32.299Z,2.00
2018-07-07T10:56:01.642Z,2.40
2018-07-07T10:58:30.908Z,2.43
2018-07-07T11:01:00.231Z,2.33
2018-07-07T11:03:29.492Z,2.10
2018-07-07T11:05:58.777Z,1.90
2018-07-07T11:08:28.139Z,2.07
2018-07-07T11:10:57.551Z,2.23
2018-07-07T11:13:26.839Z,2.43
2018-07-07T11:15:56.162Z,1.93
2018-07-07T11:18:26.384Z,2.97
2018-07-07T11:20:55.729Z,2.30
2018-07-07T11:23:25.103Z,2.67
2018-07-07T11:25:54.473Z,2.30
2018-07-07T11:28:23.836Z,2.37
2018-07-07T11:30:53.155Z,2.33
2018-07-07T11:33:22.459Z,2.53
2018-07-07T11:35:52.619Z,2.00
2018-07-07T11:38:22.358Z,2.43
2018-07-07T11:40:51.835Z,2.33
2018-07-07T11:43:21.204Z,2.60
2018-07-07T11:45:50.578Z,2.40
2018-07-07T11:48:19.913Z,3.20
2018-07-07T11:50:49.255Z,2.40
2018-07-07T11:53:18.679Z,2.80
2018-07-07T11:55:48.019Z,2.10
2018-07-07T11:58:17.361Z,2.27
2018-07-07T12:00:46.676Z,2.90
2018-07-07T12:03:15.948Z,3.07
2018-07-07T12:05:45.294Z,2.07
2018-07-07T12:08:15.008Z,2.60
2018-07-07T12:10:44.304Z,2.77
2018-07-07T12:13:13.623Z,3.40
2018-07-07T12:15:42.970Z,2.33
2018-07-07T12:18:12.289Z,2.30
2018-07-07T12:20:41.643Z,2.17
2018-07-07T12:23:11.006Z,2.00
2018-07-07T12:25:40.308Z,2.30
2018-07-07T12:28:10.326Z,2.20
2018-07-07T12:30:40.151Z,2.37
2018-07-07T12:33:09.465Z,2.50
2018-07-07T12:35:38.751Z,2.80
2018-07-07T12:38:08.103Z,2.20
2018-07-07T12:40:37.398Z,3.27
2018-07-07T12:43:06.736Z,2.40
2018-07-07T12:45:36.251Z,2.50
2018-07-07T12:48:05.735Z,2.80
2018-07-07T12:50:35.048Z,1.93
2018-07-07T12:53:04.705Z,2.10
2018-07-07T12:55:34.130Z,2.37
2018-07-07T12:58:03.457Z,1.93
2018-07-07T13:00:32.907Z,1.70
2018-07-07T13:03:02.065Z,1.90
2018-07-07T13:05:31.384Z,1.83
2018-07-07T13:08:00.752Z,1.90
2018-07-07T13:10:30.094Z,2.40
2018-07-07T13:12:59.395Z,2.20
2018-07-07T13:15:29.039Z,2.27
2018-07-07T13:17:58.361Z,2.00
2018-07-07T13:20:27.873Z,1.87
2018-07-07T13:22:57.175Z,2.03
2018-07-07T13:25:26.508Z,2.13
2018-07-07T13:27:55.789Z,1.80
2018-07-07T13:30:25.122Z,2.10
2018-07-07T13:32:54.512Z,2.23
2018-07-07T13:35:23.858Z,2.07
2018-07-07T13:37:53.935Z,2.10
2018-07-07T13:40:23.502Z,2.30
2018-07-07T13:42:52.838Z,2.00
2018-07-07T13:45:22.283Z,2.27
2018-07-07T13:47:51.588Z,2.20
2018-07-07T13:50:20.916Z,2.80
2018-07-07T13:52:50.297Z,1.57
2018-07-07T13:55:19.544Z,1.90
2018-07-07T13:57:48.911Z,1.93
2018-07-07T14:00:18.675Z,2.10
2018-07-07T14:02:48.023Z,2.20
2018-07-07T14:05:17.341Z,1.50
2018-07-07T14:07:46.735Z,1.87
2018-07-07T14:10:16.063Z,1.90
2018-07-07T14:12:45.472Z,1.83
2018-07-07T14:15:14.791Z,1.90
2018-07-07T14:17:44.277Z,1.80
2018-07-07T14:20:13.606Z,1.67
2018-07-07T14:22:43.409Z,2.23
2018-07-07T14:25:12.723Z,2.73
2018-07-07T14:27:41.987Z,2.10
2018-07-07T14:30:11.316Z,1.80
2018-07-07T14:32:40.658Z,2.40
2018-07-07T14:35:09.927Z,2.27
2018-07-07T14:37:39.273Z,3.80
2018-07-07T14:40:08.545Z,2.90
2018-07-07T14:42:45.589Z,3.73
2018-07-07T14:45:19.291Z,3.70
2018-07-07T14:47:49.863Z,2.70
2018-07-07T14:50:19.398Z,1.97
2018-07-07T14:52:49.218Z,2.60
2018-07-07T14:55:20.695Z,2.13
2018-07-07T14:57:50.051Z,1.80
2018-07-07T15:00:21.204Z,2.17
2018-07-07T15:02:51.687Z,1.63
2018-07-07T15:05:21.053Z,2.33
2018-07-07T15:07:50.442Z,2.60
2018-07-07T15:10:19.851Z,2.37
2018-07-07T15:12:49.487Z,2.27
2018-07-07T15:15:18.775Z,1.83
2018-07-07T15:17:48.195Z,2.07
2018-07-07T15:20:17.514Z,1.80
2018-07-07T15:22:47.253Z,1.93
2018-07-07T15:25:16.516Z,2.73
2018-07-07T15:27:45.764Z,2.10
2018-07-07T15:30:16.002Z,1.60
2018-07-07T15:32:45.382Z,2.60
2018-07-07T15:35:14.697Z,1.70
2018-07-07T15:37:44.102Z,2.53
2018-07-07T15:40:13.435Z,2.10
2018-07-07T15:42:42.834Z,1.67
2018-07-07T15:45:12.629Z,1.87
2018-07-07T15:47:42.074Z,2.27
2018-07-07T15:50:11.439Z,2.00
2018-07-07T15:52:40.844Z,2.20
2018-07-07T15:55:10.187Z,3.03
2018-07-07T15:57:39.663Z,2.50
2018-07-07T16:00:11.081Z,2.90
2018-07-07T16:02:40.498Z,2.80
2018-07-07T16:05:09.796Z,1.97
2018-07-07T16:07:39.823Z,3.33
2018-07-07T16:10:08.835Z,2.73
2018-07-07T16:12:38.179Z,3.13
2018-07-07T16:15:07.306Z,2.43
2018-07-07T16:17:36.831Z,2.57
2018-07-07T16:20:06.247Z,2.63
2018-07-07T16:22:35.584Z,2.53
2018-07-07T16:25:04.954Z,2.80
2018-07-07T16:27:34.324Z,2.30
2018-07-07T16:30:03.988Z,2.07
2018-07-07T16:32:33.303Z,2.47
2018-07-07T16:35:02.699Z,2.67
2018-07-07T16:37:32.039Z,1.93
2018-07-07T16:40:01.402Z,1.90
2018-07-07T16:42:30.685Z,1.93
2018-07-07T16:45:00.884Z,2.20
2018-07-07T16:47:30.206Z,2.40
2018-07-07T16:49:59.711Z,2.93
2018-07-07T16:52:30.158Z,3.40
2018-07-07T16:54:59.479Z,2.87
2018-07-07T16:57:28.813Z,2.90
2018-07-07T16:59:58.517Z,2.87
2018-07-07T17:02:28.441Z,3.20
2018-07-07T17:04:57.703Z,2.80
2018-07-07T17:07:27.083Z,3.00
2018-07-07T17:09:56.405Z,1.80
2018-07-07T17:12:25.729Z,2.73
2018-07-07T17:14:55.376Z,3.07
2018-07-07T17:17:24.721Z,2.90
2018-07-07T17:19:54.256Z,3.10
2018-07-07T17:22:23.754Z,2.40
2018-07-07T17:24:53.080Z,2.30
2018-07-07T17:27:22.419Z,2.30
2018-07-07T17:29:51.813Z,2.17
2018-07-07T17:32:21.178Z,2.53
2018-07-07T17:34:50.520Z,1.87
2018-07-07T17:37:21.195Z,2.30
2018-07-07T17:39:50.467Z,1.40
2018-07-07T17:42:19.812Z,2.10
2018-07-07T17:44:49.438Z,2.40
2018-07-07T17:47:18.778Z,2.00
2018-07-07T17:49:48.142Z,2.43
2018-07-07T17:52:17.453Z,2.70
2018-07-07T17:54:46.909Z,1.63
2018-07-07T17:57:16.248Z,1.87
2018-07-07T17:59:45.781Z,1.80
2018-07-07T18:02:15.087Z,2.30
2018-07-07T18:04:45.423Z,2.80
2018-07-07T18:07:14.738Z,1.93
2018-07-07T18:09:44.013Z,1.90
2018-07-07T18:12:13.368Z,2.50
2018-07-07T18:14:42.836Z,1.90
2018-07-07T18:17:12.149Z,2.47
2018-07-07T18:19:41.619Z,2.60
2018-07-07T18:22:12.187Z,2.43
2018-07-07T18:24:41.772Z,2.50
2018-07-07T18:27:10.894Z,2.37
2018-07-07T18:29:40.065Z,2.30
2018-07-07T18:32:09.412Z,2.17
2018-07-07T18:34:39.100Z,1.77
2018-07-07T18:37:08.521Z,2.40
2018-07-07T18:39:37.872Z,2.30
2018-07-07T18:42:07.671Z,2.40
2018-07-07T18:44:37.246Z,2.20
2018-07-07T18:47:07.000Z,2.60
2018-07-07T18:49:36.363Z,2.50
2018-07-07T18:52:05.732Z,2.17
2018-07-07T18:54:35.032Z,2.60
2018-07-07T18:57:04.333Z,2.30
2018-07-07T18:59:33.660Z,2.63
2018-07-07T19:02:02.944Z,2.93
2018-07-07T19:04:32.291Z,2.77
2018-07-07T19:07:02.218Z,2.40
2018-07-07T19:09:31.546Z,2.60
2018-07-07T19:12:00.917Z,2.60
2018-07-07T19:14:30.258Z,2.33
2018-07-07T19:16:59.612Z,2.63
2018-07-07T19:19:28.916Z,2.83
2018-07-07T19:22:04.013Z,2.77
2018-07-07T19:24:38.695Z,3.17
2018-07-07T19:27:08.548Z,2.53
2018-07-07T19:29:38.038Z,3.20
2018-07-07T19:32:12.735Z,2.23
2018-07-07T19:34:47.556Z,2.80
2018-07-07T19:37:18.023Z,2.33
2018-07-07T19:39:47.892Z,2.50
2018-07-07T19:42:17.420Z,3.60
2018-07-07T19:44:46.874Z,3.30
2018-07-07T19:47:16.289Z,3.33
2018-07-07T19:49:45.677Z,3.13
2018-07-07T19:52:15.009Z,2.90
2018-07-07T19:54:44.380Z,2.63
2018-07-07T19:57:13.784Z,2.77
2018-07-07T19:59:43.804Z,3.07
2018-07-07T20:02:13.204Z,3.13
2018-07-07T20:04:42.543Z,2.90
2018-07-07T20:07:11.916Z,2.37
2018-07-07T20:09:41.388Z,2.47
2018-07-07T20:12:10.802Z,3.37
2018-07-07T20:14:40.189Z,3.20
2018-07-07T20:17:11.015Z,3.10
2018-07-07T20:21:04.818Z,2.27
2018-07-07T20:23:34.560Z,2.90
2018-07-07T20:26:05.091Z,3.20
2018-07-07T20:28:39.693Z,2.80
2018-07-07T20:31:09.080Z,2.57
2018-07-07T20:33:38.485Z,3.73
2018-07-07T20:36:08.440Z,2.80
2018-07-07T20:38:38.897Z,2.27
2018-07-07T20:41:08.383Z,3.50
2018-07-07T20:43:37.846Z,2.83
2018-07-07T20:46:07.387Z,2.40
2018-07-07T20:48:36.898Z,2.17
2018-07-07T20:51:06.702Z,3.30
2018-07-07T20:53:36.180Z,2.60
2018-07-07T20:56:05.792Z,2.97
2018-07-07T20:58:35.258Z,3.23
2018-07-07T21:01:04.587Z,3.50
2018-07-07T21:03:33.866Z,3.20
2018-07-07T21:06:03.198Z,3.03
2018-07-07T21:08:32.538Z,3.17
2018-07-07T21:11:02.020Z,3.40
2018-07-07T21:13:31.347Z,4.20
2018-07-07T21:16:00.746Z,3.10
2018-07-07T21:18:30.689Z,3.10
2018-07-07T21:21:00.135Z,3.77
2018-07-07T21:23:29.546Z,3.87
2018-07-07T21:25:59.585Z,3.50
2018-07-07T21:28:29.069Z,3.37
2018-07-07T21:30:58.444Z,3.30
2018-07-07T21:33:27.862Z,2.93
2018-07-07T21:35:57.223Z,3.60
2018-07-07T21:38:26.538Z,2.90
2018-07-07T21:40:56.025Z,3.97
2018-07-07T21:43:25.488Z,4.90
2018-07-07T21:45:54.949Z,3.47
2018-07-07T21:48:24.273Z,2.73
2018-07-07T21:50:53.738Z,3.07
2018-07-07T21:53:23.155Z,3.40
2018-07-07T21:55:52.493Z,3.13
2018-07-07T21:58:27.211Z,3.83
2018-07-07T22:01:14.560Z,3.20
2018-07-07T22:03:49.351Z,3.30
2018-07-07T22:06:24.274Z,4.93
2018-07-07T22:08:53.748Z,4.10
2018-07-07T22:11:33.778Z,3.83
2018-07-07T22:14:03.119Z,3.87
2018-07-07T22:16:32.458Z,3.33
2018-07-07T22:19:02.617Z,3.27
2018-07-07T22:21:48.770Z,4.30
2018-07-07T22:24:18.119Z,3.20
2018-07-07T22:26:47.980Z,3.97
2018-07-07T22:29:17.280Z,3.53
2018-07-07T22:31:47.174Z,3.90
2018-07-07T22:34:16.458Z,4.60
2018-07-07T22:36:45.772Z,3.67
2018-07-07T22:39:15.342Z,4.27
2018-07-07T22:41:53.991Z,3.50
2018-07-07T22:44:23.350Z,3.20
2018-07-07T22:46:53.376Z,3.90
2018-07-07T22:49:23.334Z,3.03
2018-07-07T22:51:53.010Z,3.87
2018-07-07T22:54:22.354Z,4.13
2018-07-07T22:56:51.667Z,3.97
2018-07-07T22:59:21.336Z,4.13
2018-07-07T23:01:50.633Z,3.60
2018-07-07T23:04:19.948Z,3.13
2018-07-07T23:06:49.322Z,3.70
2018-07-07T23:09:19.462Z,4.03
2018-07-07T23:11:49.054Z,4.30
2018-07-07T23:14:18.485Z,3.27
2018-07-07T23:16:47.667Z,3.60
2018-07-07T23:19:17.240Z,4.20
2018-07-07T23:21:47.147Z,3.47
2018-07-07T23:24:16.604Z,4.70
2018-07-07T23:26:46.083Z,3.50
2018-07-07T23:29:15.676Z,3.63
2018-07-07T23:31:45.304Z,3.30
2018-07-07T23:34:14.720Z,3.47
2018-07-07T23:36:44.258Z,4.20
2018-07-07T23:39:13.707Z,4.83
2018-07-07T23:41:43.055Z,3.60
2018-07-07T23:44:12.648Z,4.50
2018-07-07T23:46:42.206Z,4.00
2018-07-07T23:49:11.596Z,3.90
2018-07-07T23:51:41.078Z,4.87
2018-07-07T23:54:10.460Z,8.23
2018-07-07T23:56:40.154Z,4.43
2018-07-07T23:59:09.572Z,4.40
